createdAt,value
2019-06-15T00:01:54.836Z,55.80
2019-06-15T00:05:58.960Z,55.80
2019-06-15T00:10:03.393Z,56.10
2019-06-15T00:14:07.494Z,56.40
2019-06-15T00:18:11.682Z,56.90
2019-06-15T00:22:15.878Z,56.80
2019-06-15T00:26:20.046Z,56.90
2019-06-15T00:30:24.125Z,56.80
2019-06-15T00:34:28.213Z,56.80
2019-06-15T00:38:32.368Z,56.90
2019-06-15T00:42:36.833Z,56.80
2019-06-15T00:46:40.923Z,56.80
2019-06-15T00:50:45.006Z,57.00
2019-06-15T00:54:50.625Z,57.00
2019-06-15T00:58:54.975Z,57.20
2019-06-15T01:02:59.132Z,57.20
2019-06-15T01:07:03.611Z,57.50
2019-06-15T01:11:07.797Z,57.80
2019-06-15T01:15:12.413Z,58.10
2019-06-15T01:19:16.566Z,58.30
2019-06-15T01:23:20.665Z,59.60
2019-06-15T01:27:24.823Z,60.50
2019-06-15T01:31:29.311Z,59.40
2019-06-15T01:35:33.951Z,59.70
2019-06-15T01:39:38.371Z,60.50
2019-06-15T01:43:42.588Z,60.20
2019-06-15T01:47:47.051Z,60.40
2019-06-15T01:51:51.808Z,60.40
2019-06-15T01:55:56.288Z,59.90
2019-06-15T02:00:01.344Z,59.80
2019-06-15T02:04:06.006Z,59.80
2019-06-15T02:08:10.141Z,59.40
2019-06-15T02:12:14.266Z,59.30
2019-06-15T02:16:18.670Z,59.10
2019-06-15T02:20:22.833Z,59.80
2019-06-15T02:24:27.570Z,59.70
2019-06-15T02:28:32.096Z,59.50
2019-06-15T02:32:36.579Z,59.50
2019-06-15T02:36:40.795Z,59.50
2019-06-15T02:40:45.243Z,59.40
2019-06-15T02:44:49.599Z,60.10
2019-06-15T02:48:53.722Z,59.70
2019-06-15T02:52:57.867Z,59.50
2019-06-15T02:57:03.008Z,59.90
2019-06-15T03:01:09.386Z,61.00
2019-06-15T03:05:13.885Z,60.50
2019-06-15T03:09:18.521Z,60.80
2019-06-15T03:13:23.411Z,60.70
2019-06-15T03:17:27.915Z,60.90
2019-06-15T03:21:32.056Z,61.60
2019-06-15T03:25:36.175Z,61.40
2019-06-15T03:29:40.277Z,61.40
2019-06-15T03:33:44.440Z,61.20
2019-06-15T03:37:48.545Z,60.90
2019-06-15T03:41:52.681Z,60.60
2019-06-15T03:45:56.867Z,61.00
2019-06-15T03:50:01.503Z,61.40
2019-06-15T03:54:05.650Z,61.60
2019-06-15T03:58:10.125Z,61.50
2019-06-15T04:02:14.975Z,61.20
2019-06-15T04:06:19.056Z,61.30
2019-06-15T04:10:23.814Z,61.80
2019-06-15T04:14:27.931Z,61.90
2019-06-15T04:18:32.330Z,61.90
2019-06-15T04:22:36.792Z,62.10
2019-06-15T04:26:41.250Z,62.20
2019-06-15T04:30:45.342Z,62.20
2019-06-15T04:34:50.174Z,61.70
2019-06-15T04:38:54.718Z,62.40
2019-06-15T04:42:58.822Z,62.20
2019-06-15T04:47:02.991Z,61.90
2019-06-15T04:51:07.071Z,61.90
2019-06-15T04:55:12.039Z,62.20
2019-06-15T04:59:16.131Z,62.20
2019-06-15T05:03:20.406Z,62.00
2019-06-15T05:07:24.484Z,61.60
2019-06-15T05:11:29.463Z,61.80
2019-06-15T05:15:33.597Z,62.00
2019-06-15T05:19:38.453Z,61.90
2019-06-15T05:23:42.629Z,62.00
2019-06-15T05:27:46.793Z,61.40
2019-06-15T05:31:50.871Z,60.50
2019-06-15T05:35:55.303Z,59.70
2019-06-15T05:39:59.433Z,59.00
2019-06-15T05:44:03.603Z,59.10
2019-06-15T05:48:07.673Z,58.80
2019-06-15T05:52:11.861Z,58.00
2019-06-15T05:56:15.920Z,57.30
2019-06-15T06:00:20.090Z,56.50
2019-06-15T06:04:24.562Z,55.10
2019-06-15T06:08:28.754Z,53.70
2019-06-15T06:12:33.261Z,47.70
2019-06-15T06:16:37.730Z,46.90
2019-06-15T06:20:41.783Z,43.40
2019-06-15T06:24:46.238Z,43.20
2019-06-15T06:28:57.318Z,40.10
2019-06-15T06:32:56.233Z,39.60
2019-06-15T06:37:00.793Z,38.60
2019-06-15T06:41:05.300Z,36.70
2019-06-15T06:45:10.414Z,37.40
2019-06-15T06:49:14.528Z,36.70
2019-06-15T06:53:18.716Z,35.30
2019-06-15T06:57:22.785Z,35.20
2019-06-15T07:01:27.230Z,34.50
2019-06-15T07:05:31.744Z,35.40
2019-06-15T07:09:36.179Z,34.60
2019-06-15T07:13:40.286Z,34.50
2019-06-15T07:17:44.958Z,33.70
2019-06-15T07:21:49.007Z,34.50
2019-06-15T07:25:53.103Z,35.70
2019-06-15T07:29:57.843Z,36.20
2019-06-15T07:34:02.355Z,37.20
2019-06-15T07:38:06.811Z,38.10
2019-06-15T07:42:10.890Z,38.50
2019-06-15T07:46:15.250Z,38.60
2019-06-15T07:50:19.811Z,39.30
2019-06-15T07:54:23.946Z,39.50
2019-06-15T07:58:28.344Z,39.50
2019-06-15T08:02:33.101Z,39.40
2019-06-15T08:06:37.210Z,39.30
2019-06-15T08:10:41.641Z,39.10
2019-06-15T08:14:46.099Z,38.90
2019-06-15T08:18:50.508Z,39.40
2019-06-15T08:22:54.581Z,40.40
2019-06-15T08:26:58.745Z,40.50
2019-06-15T08:31:02.942Z,40.20
2019-06-15T08:35:07.550Z,39.50
2019-06-15T08:39:11.626Z,38.90
2019-06-15T08:43:16.277Z,39.00
2019-06-15T08:47:20.867Z,39.80
2019-06-15T08:51:25.264Z,40.50
2019-06-15T08:55:29.654Z,40.50
2019-06-15T08:59:34.028Z,40.40
2019-06-15T09:03:38.107Z,40.50
2019-06-15T09:07:42.316Z,40.60
2019-06-15T09:11:46.370Z,40.90
2019-06-15T09:15:54.221Z,40.40
2019-06-15T09:19:58.652Z,41.00
2019-06-15T09:24:02.709Z,40.40
2019-06-15T09:28:06.858Z,40.70
2019-06-15T09:32:11.184Z,41.10
2019-06-15T09:36:15.612Z,39.50
2019-06-15T09:40:21.390Z,40.30
2019-06-15T09:44:25.558Z,40.90
2019-06-15T09:48:29.610Z,41.30
2019-06-15T09:52:33.678Z,41.40
2019-06-15T09:56:38.115Z,41.50
2019-06-15T10:00:42.185Z,40.70
2019-06-15T10:04:46.249Z,41.50
2019-06-15T10:08:50.367Z,40.50
2019-06-15T10:12:54.757Z,40.60
2019-06-15T10:16:59.111Z,40.10
2019-06-15T10:21:03.575Z,39.00
2019-06-15T10:25:08.409Z,38.10
2019-06-15T10:29:13.151Z,37.80
2019-06-15T10:33:17.559Z,37.30
2019-06-15T10:37:21.612Z,36.90
2019-06-15T10:41:25.691Z,36.80
2019-06-15T10:45:30.172Z,36.90
2019-06-15T10:49:34.851Z,37.50
2019-06-15T10:53:39.301Z,38.00
2019-06-15T10:57:43.735Z,38.00
2019-06-15T11:01:47.876Z,38.10
2019-06-15T11:05:54.919Z,39.00
2019-06-15T11:09:59.480Z,39.50
2019-06-15T11:14:04.848Z,39.70
2019-06-15T11:18:09.385Z,38.80
2019-06-15T11:22:13.445Z,39.00
2019-06-15T11:26:18.162Z,39.40
2019-06-15T11:30:22.548Z,39.80
2019-06-15T11:34:27.410Z,39.40
2019-06-15T11:38:31.442Z,39.90
2019-06-15T11:42:35.865Z,40.30
2019-06-15T11:46:39.917Z,39.50
2019-06-15T11:50:44.001Z,39.40
2019-06-15T11:54:48.050Z,40.20
2019-06-15T11:58:52.200Z,40.10
2019-06-15T12:02:56.675Z,40.80
2019-06-15T12:07:01.088Z,41.00
2019-06-15T12:11:05.198Z,41.10
2019-06-15T12:15:09.358Z,40.80
2019-06-15T12:19:13.816Z,40.80
2019-06-15T12:23:18.248Z,41.10
2019-06-15T12:27:22.698Z,40.50
2019-06-15T12:31:26.840Z,40.50
2019-06-15T12:35:31.231Z,40.60
2019-06-15T12:39:41.380Z,40.40
2019-06-15T12:43:41.483Z,40.70
2019-06-15T12:47:45.863Z,40.40
2019-06-15T12:51:49.937Z,40.40
2019-06-15T12:55:54.021Z,40.80
2019-06-15T12:59:58.415Z,41.10
2019-06-15T13:04:02.563Z,40.70
2019-06-15T13:08:06.634Z,40.80
2019-06-15T13:12:10.774Z,41.10
2019-06-15T13:16:15.146Z,41.00
2019-06-15T13:20:20.352Z,41.20
2019-06-15T13:24:24.394Z,41.40
2019-06-15T13:28:28.820Z,41.60
2019-06-15T13:32:33.217Z,42.00
2019-06-15T13:36:37.286Z,41.40
2019-06-15T13:40:41.350Z,41.70
2019-06-15T13:44:45.723Z,42.30
2019-06-15T13:48:50.065Z,41.80
2019-06-15T13:52:54.174Z,41.70
2019-06-15T13:56:58.598Z,41.60
2019-06-15T14:01:03.583Z,41.30
2019-06-15T14:05:07.647Z,41.20
2019-06-15T14:09:11.730Z,41.60
2019-06-15T14:13:16.406Z,42.20
2019-06-15T14:17:20.502Z,41.80
2019-06-15T14:21:24.556Z,42.00
2019-06-15T14:25:28.918Z,41.90
2019-06-15T14:29:33.010Z,42.10
2019-06-15T14:33:37.387Z,42.00
2019-06-15T14:37:41.802Z,42.30
2019-06-15T14:41:48.525Z,42.40
2019-06-15T14:45:59.345Z,42.20
2019-06-15T14:49:57.834Z,42.10
2019-06-15T14:54:02.204Z,42.20
2019-06-15T14:58:06.412Z,42.00
2019-06-15T15:02:14.359Z,42.40
2019-06-15T15:06:17.401Z,42.10
2019-06-15T15:10:21.556Z,42.30
2019-06-15T15:14:26.290Z,42.30
2019-06-15T15:18:30.727Z,42.40
2019-06-15T15:22:37.016Z,42.40
2019-06-15T15:26:40.687Z,42.30
2019-06-15T15:30:44.800Z,42.30
2019-06-15T15:34:49.565Z,41.90
2019-06-15T15:38:55.927Z,42.00
2019-06-15T15:43:00.039Z,42.00
2019-06-15T15:47:06.986Z,42.20
2019-06-15T15:51:10.263Z,42.00
2019-06-15T15:55:17.340Z,42.50
2019-06-15T15:59:21.664Z,42.50
2019-06-15T16:03:26.433Z,42.30
2019-06-15T16:07:31.122Z,42.20
2019-06-15T16:11:37.152Z,42.00
2019-06-15T16:15:41.127Z,41.80
2019-06-15T16:19:45.134Z,42.00
2019-06-15T16:23:49.220Z,42.20
2019-06-15T16:27:53.290Z,42.10
2019-06-15T16:31:57.752Z,42.20
2019-06-15T16:36:01.892Z,42.30
2019-06-15T16:40:07.696Z,42.60
2019-06-15T16:44:11.800Z,42.50
2019-06-15T16:48:16.768Z,42.60
2019-06-15T16:52:21.250Z,42.40
2019-06-15T16:56:26.755Z,42.50
2019-06-15T17:00:32.739Z,42.50
2019-06-15T17:04:37.176Z,42.50
2019-06-15T17:08:41.599Z,42.60
2019-06-15T17:12:47.580Z,42.70
2019-06-15T17:16:52.127Z,42.80
2019-06-15T17:20:56.874Z,43.20
2019-06-15T17:25:00.937Z,43.30
2019-06-15T17:29:07.149Z,43.70
2019-06-15T17:33:11.463Z,44.10
2019-06-15T17:37:17.259Z,43.60
2019-06-15T17:41:21.525Z,43.70
2019-06-15T17:45:26.646Z,43.70
2019-06-15T17:49:32.903Z,44.30
2019-06-15T17:53:36.995Z,43.80
2019-06-15T17:57:41.082Z,44.10
2019-06-15T18:01:46.963Z,44.20
2019-06-15T18:05:51.338Z,44.10
2019-06-15T18:09:55.426Z,44.20
2019-06-15T18:13:59.885Z,44.30
2019-06-15T18:18:04.022Z,44.50
2019-06-15T18:22:08.457Z,44.30
2019-06-15T18:26:12.503Z,44.80
2019-06-15T18:30:17.111Z,44.20
2019-06-15T18:34:21.161Z,44.40
2019-06-15T18:38:26.082Z,44.20
2019-06-15T18:42:30.294Z,44.30
2019-06-15T18:46:36.634Z,44.40
2019-06-15T18:50:41.101Z,44.60
2019-06-15T18:54:46.678Z,44.90
2019-06-15T18:58:50.998Z,45.00
2019-06-15T19:02:55.988Z,45.20
2019-06-15T19:07:03.030Z,45.50
2019-06-15T19:11:07.295Z,45.60
2019-06-15T19:15:11.995Z,46.10
2019-06-15T19:19:17.049Z,46.40
2019-06-15T19:23:22.322Z,46.50
2019-06-15T19:27:26.436Z,47.00
2019-06-15T19:31:30.840Z,47.20
2019-06-15T19:35:36.526Z,47.70
2019-06-15T19:39:41.066Z,48.00
2019-06-15T19:43:46.758Z,48.20
2019-06-15T19:47:51.546Z,48.50
2019-06-15T19:51:56.487Z,48.80
2019-06-15T19:56:01.298Z,49.20
2019-06-15T20:00:07.795Z,49.20
2019-06-15T20:04:12.617Z,49.40
2019-06-15T20:08:17.639Z,49.40
2019-06-15T20:12:23.061Z,49.60
2019-06-15T20:16:31.940Z,49.70
2019-06-15T20:20:37.325Z,50.10
2019-06-15T20:24:42.735Z,50.40
2019-06-15T20:28:47.049Z,50.60
2019-06-15T20:32:51.562Z,50.80
2019-06-15T20:36:55.754Z,51.10
2019-06-15T20:41:00.354Z,51.40
2019-06-15T20:45:05.597Z,51.50
2019-06-15T20:49:10.433Z,51.70
2019-06-15T20:53:16.818Z,52.10
2019-06-15T20:57:20.732Z,52.30
2019-06-15T21:01:26.908Z,52.20
2019-06-15T21:05:37.711Z,52.30
2019-06-15T21:09:37.258Z,52.50
2019-06-15T21:13:42.028Z,52.70
2019-06-15T21:17:46.754Z,52.80
2019-06-15T21:21:50.902Z,52.90
2019-06-15T21:25:57.110Z,53.10
2019-06-15T21:30:01.613Z,53.30
2019-06-15T21:34:07.275Z,53.40
2019-06-15T21:38:11.790Z,53.50
2019-06-15T21:42:16.518Z,53.70
2019-06-15T21:46:20.663Z,53.80
2019-06-15T21:50:26.777Z,53.90
2019-06-15T21:54:30.753Z,53.90
2019-06-15T21:58:36.689Z,54.30
2019-06-15T22:02:41.554Z,54.30
2019-06-15T22:06:47.710Z,54.50
2019-06-15T22:10:52.887Z,54.80
2019-06-15T22:14:57.088Z,54.80
2019-06-15T22:19:01.225Z,54.70
2019-06-15T22:23:07.291Z,55.10
2019-06-15T22:27:11.743Z,55.70
2019-06-15T22:31:17.132Z,56.00
2019-06-15T22:35:21.781Z,56.40
2019-06-15T22:39:26.913Z,56.50
2019-06-15T22:43:31.222Z,56.10
2019-06-15T22:47:37.238Z,56.20
2019-06-15T22:51:41.795Z,56.10
2019-06-15T22:55:46.326Z,56.50
2019-06-15T22:59:50.647Z,56.40
2019-06-15T23:03:56.953Z,56.30
2019-06-15T23:08:01.212Z,56.30
2019-06-15T23:12:07.206Z,56.20
2019-06-15T23:16:11.666Z,56.10
2019-06-15T23:20:17.218Z,56.20
2019-06-15T23:24:21.426Z,56.40
2019-06-15T23:28:27.059Z,56.40
2019-06-15T23:32:31.410Z,56.50
2019-06-15T23:36:53.129Z,56.60
2019-06-15T23:40:46.724Z,56.60
2019-06-15T23:44:50.967Z,56.40
2019-06-15T23:48:56.657Z,56.60
2019-06-15T23:53:01.704Z,56.50
2019-06-15T23:57:07.003Z,56.50
